sensor_id;sensor_type;location;lat;lon;timestamp;pressure;altitude;pressure_sealevel;temperature;humidity
9059;BME280;4564;42.034;25.834;2023-05-19T00:01:07;100070.41;;;14.21;100.00
9059;BME280;4564;42.034;25.834;2023-05-19T00:03:34;100070.03;;;14.11;100.00
9059;BME280;4564;42.034;25.834;2023-05-19T00:06:04;100070.88;;;14.11;100.00
9059;BME280;4564;42.034;25.834;2023-05-19T00:08:32;100073.63;;;14.11;100.00
9059;BME280;4564;42.034;25.834;2023-05-19T00:11:00;100062.91;;;14.10;100.00
9059;BME280;4564;42.034;25.834;2023-05-19T00:13:26;100067.94;;;14.13;100.00
9059;BME280;4564;42.034;25.834;2023-05-19T00:15:53;100069.66;;;14.07;100.00
9059;BME280;4564;42.034;25.834;2023-05-19T00:18:21;100060.81;;;14.05;100.00
9059;BME280;4564;42.034;25.834;2023-05-19T00:20:48;100060.19;;;14.10;100.00
9059;BME280;4564;42.034;25.834;2023-05-19T00:23:16;100057.03;;;14.13;100.00
9059;BME280;4564;42.034;25.834;2023-05-19T00:25:43;100052.44;;;14.07;100.00
9059;BME280;4564;42.034;25.834;2023-05-19T00:28:10;100052.19;;;14.15;100.00
9059;BME280;4564;42.034;25.834;2023-05-19T00:30:36;100056.19;;;14.12;100.00
9059;BME280;4564;42.034;25.834;2023-05-19T00:33:03;100056.59;;;14.09;100.00
9059;BME280;4564;42.034;25.834;2023-05-19T00:35:31;100059.56;;;14.08;100.00
9059;BME280;4564;42.034;25.834;2023-05-19T00:37:57;100055.97;;;14.14;100.00
9059;BME280;4564;42.034;25.834;2023-05-19T00:40:24;100069.63;;;14.14;100.00
9059;BME280;4564;42.034;25.834;2023-05-19T00:42:51;100063.94;;;14.15;100.00
9059;BME280;4564;42.034;25.834;2023-05-19T00:45:17;100061.19;;;14.15;100.00
9059;BME280;4564;42.034;25.834;2023-05-19T00:47:44;100059.50;;;14.21;100.00
9059;BME280;4564;42.034;25.834;2023-05-19T00:50:10;100062.88;;;14.23;100.00
9059;BME280;4564;42.034;25.834;2023-05-19T00:52:38;100059.94;;;14.24;100.00
9059;BME280;4564;42.034;25.834;2023-05-19T00:55:05;100057.00;;;14.19;100.00
9059;BME280;4564;42.034;25.834;2023-05-19T00:57:32;100050.75;;;14.06;100.00
9059;BME280;4564;42.034;25.834;2023-05-19T00:59:58;100052.00;;;14.10;100.00
9059;BME280;4564;42.034;25.834;2023-05-19T01:02:26;100047.34;;;14.17;100.00
9059;BME280;4564;42.034;25.834;2023-05-19T01:04:53;100042.16;;;14.09;100.00
9059;BME280;4564;42.034;25.834;2023-05-19T01:07:22;100044.06;;;14.02;100.00
9059;BME280;4564;42.034;25.834;2023-05-19T01:09:51;100043.63;;;13.98;100.00
9059;BME280;4564;42.034;25.834;2023-05-19T01:12:17;100048.03;;;13.99;100.00
9059;BME280;4564;42.034;25.834;2023-05-19T01:14:44;100046.34;;;14.05;100.00
9059;BME280;4564;42.034;25.834;2023-05-19T01:17:12;100046.16;;;14.00;100.00
9059;BME280;4564;42.034;25.834;2023-05-19T01:19:46;100042.81;;;13.98;100.00
9059;BME280;4564;42.034;25.834;2023-05-19T01:22:18;100043.25;;;13.95;100.00
9059;BME280;4564;42.034;25.834;2023-05-19T01:24:59;100042.63;;;13.93;100.00
9059;BME280;4564;42.034;25.834;2023-05-19T01:27:46;;;;13.86;
9059;BME280;4564;42.034;25.834;2023-05-19T01:30:26;100049.34;;;13.83;100.00
9059;BME280;4564;42.034;25.834;2023-05-19T01:32:55;100054.41;;;13.86;100.00
9059;BME280;4564;42.034;25.834;2023-05-19T01:35:22;100049.78;;;13.87;100.00
9059;BME280;4564;42.034;25.834;2023-05-19T01:37:50;100040.75;;;13.86;100.00
9059;BME280;4564;42.034;25.834;2023-05-19T01:40:17;100042.84;;;13.84;100.00
9059;BME280;4564;42.034;25.834;2023-05-19T01:42:44;100039.47;;;13.96;100.00
9059;BME280;4564;42.034;25.834;2023-05-19T01:45:11;100027.53;;;13.90;100.00
9059;BME280;4564;42.034;25.834;2023-05-19T01:47:40;100046.41;;;13.92;100.00
9059;BME280;4564;42.034;25.834;2023-05-19T01:50:07;100036.53;;;13.91;100.00
9059;BME280;4564;42.034;25.834;2023-05-19T01:52:35;100038.63;;;13.88;100.00
9059;BME280;4564;42.034;25.834;2023-05-19T01:55:01;100050.38;;;13.89;100.00
9059;BME280;4564;42.034;25.834;2023-05-19T01:57:29;100053.75;;;13.84;100.00
9059;BME280;4564;42.034;25.834;2023-05-19T02:00:00;100052.91;;;13.91;100.00
9059;BME280;4564;42.034;25.834;2023-05-19T02:02:32;100040.50;;;13.95;100.00
9059;BME280;4564;42.034;25.834;2023-05-19T02:05:05;100051.63;;;13.93;100.00
9059;BME280;4564;42.034;25.834;2023-05-19T02:07:36;100060.69;;;13.87;100.00
9059;BME280;4564;42.034;25.834;2023-05-19T02:10:09;100055.44;;;13.85;100.00
9059;BME280;4564;42.034;25.834;2023-05-19T02:12:37;100045.13;;;13.87;100.00
9059;BME280;4564;42.034;25.834;2023-05-19T02:15:05;100067.41;;;13.84;100.00
9059;BME280;4564;42.034;25.834;2023-05-19T02:17:35;100063.44;;;13.80;100.00
9059;BME280;4564;42.034;25.834;2023-05-19T02:20:07;100073.91;;;13.83;100.00
9059;BME280;4564;42.034;25.834;2023-05-19T02:22:34;100071.81;;;13.79;100.00
9059;BME280;4564;42.034;25.834;2023-05-19T02:25:01;100074.09;;;13.82;100.00
9059;BME280;4564;42.034;25.834;2023-05-19T02:27:27;100066.34;;;13.85;100.00
9059;BME280;4564;42.034;25.834;2023-05-19T02:29:54;100076.03;;;13.81;100.00
9059;BME280;4564;42.034;25.834;2023-05-19T02:32:20;100075.19;;;13.74;100.00
9059;BME280;4564;42.034;25.834;2023-05-19T02:34:47;100070.78;;;13.73;100.00
9059;BME280;4564;42.034;25.834;2023-05-19T02:37:15;100075.19;;;13.74;100.00
9059;BME280;4564;42.034;25.834;2023-05-19T02:39:42;100077.94;;;13.74;100.00
9059;BME280;4564;42.034;25.834;2023-05-19T02:42:08;100083.56;;;13.79;100.00
9059;BME280;4564;42.034;25.834;2023-05-19T02:44:36;100077.47;;;13.77;100.00
9059;BME280;4564;42.034;25.834;2023-05-19T02:47:03;100089.47;;;13.76;100.00
9059;BME280;4564;42.034;25.834;2023-05-19T02:49:29;100088.19;;;13.79;100.00
9059;BME280;4564;42.034;25.834;2023-05-19T02:52:00;100089.03;;;13.79;100.00
9059;BME280;4564;42.034;25.834;2023-05-19T02:54:28;100080.22;;;13.77;100.00
9059;BME280;4564;42.034;25.834;2023-05-19T02:56:54;100086.31;;;13.79;100.00
9059;BME280;4564;42.034;25.834;2023-05-19T02:59:21;100082.53;;;13.80;100.00
9059;BME280;4564;42.034;25.834;2023-05-19T03:01:48;100090.72;;;13.87;100.00
9059;BME280;4564;42.034;25.834;2023-05-19T03:04:15;100097.63;;;13.83;100.00
9059;BME280;4564;42.034;25.834;2023-05-19T03:06:44;100102.88;;;13.84;100.00
9059;BME280;4564;42.034;25.834;2023-05-19T03:09:10;100112.28;;;13.88;100.00
9059;BME280;4564;42.034;25.834;2023-05-19T03:11:39;100104.97;;;13.82;100.00
9059;BME280;4564;42.034;25.834;2023-05-19T03:14:05;100106.63;;;13.90;100.00
9059;BME280;4564;42.034;25.834;2023-05-19T03:16:33;100120.25;;;13.97;100.00
9059;BME280;4564;42.034;25.834;2023-05-19T03:19:00;100124.22;;;14.01;100.00
9059;BME280;4564;42.034;25.834;2023-05-19T03:21:26;100127.59;;;14.03;100.00
9059;BME280;4564;42.034;25.834;2023-05-19T03:23:54;100126.94;;;14.14;100.00
9059;BME280;4564;42.034;25.834;2023-05-19T03:26:21;100131.94;;;14.23;100.00
9059;BME280;4564;42.034;25.834;2023-05-19T03:28:50;100123.50;;;14.32;99.47
9059;BME280;4564;42.034;25.834;2023-05-19T03:31:16;100135.06;;;14.40;99.23
9059;BME280;4564;42.034;25.834;2023-05-19T03:33:43;100127.22;;;14.57;97.91
9059;BME280;4564;42.034;25.834;2023-05-19T03:36:10;100144.19;;;14.65;98.06
9059;BME280;4564;42.034;25.834;2023-05-19T03:38:36;100142.22;;;14.79;97.18
9059;BME280;4564;42.034;25.834;2023-05-19T03:41:03;100162.78;;;14.88;97.17
9059;BME280;4564;42.034;25.834;2023-05-19T03:43:30;100156.13;;;15.09;95.40
9059;BME280;4564;42.034;25.834;2023-05-19T03:45:58;100159.44;;;15.18;94.75
9059;BME280;4564;42.034;25.834;2023-05-19T03:48:24;100155.78;;;15.30;94.58
9059;BME280;4564;42.034;25.834;2023-05-19T03:50:52;100158.84;;;15.40;94.59
9059;BME280;4564;42.034;25.834;2023-05-19T03:53:18;100170.59;;;15.47;93.61
9059;BME280;4564;42.034;25.834;2023-05-19T03:55:45;100170.66;;;15.66;94.81
9059;BME280;4564;42.034;25.834;2023-05-19T03:58:12;100184.59;;;15.64;93.68
9059;BME280;4564;42.034;25.834;2023-05-19T04:00:39;100172.84;;;15.82;92.78
9059;BME280;4564;42.034;25.834;2023-05-19T04:03:07;100176.94;;;15.73;92.35
9059;BME280;4564;42.034;25.834;2023-05-19T04:05:33;100187.78;;;15.86;93.17
9059;BME280;4564;42.034;25.834;2023-05-19T04:08:00;100182.78;;;16.01;93.25
9059;BME280;4564;42.034;25.834;2023-05-19T04:10:26;100178.91;;;16.09;93.17
9059;BME280;4564;42.034;25.834;2023-05-19T04:12:53;100188.88;;;16.21;92.48
9059;BME280;4564;42.034;25.834;2023-05-19T04:15:20;100190.44;;;16.35;92.79
9059;BME280;4564;42.034;25.834;2023-05-19T04:17:46;100187.22;;;16.38;89.83
9059;BME280;4564;42.034;25.834;2023-05-19T04:20:14;100186.91;;;16.47;90.76
9059;BME280;4564;42.034;25.834;2023-05-19T04:22:41;100195.03;;;16.60;89.92
9059;BME280;4564;42.034;25.834;2023-05-19T04:25:08;100189.38;;;16.55;90.12
9059;BME280;4564;42.034;25.834;2023-05-19T04:27:34;100189.06;;;16.63;90.79
9059;BME280;4564;42.034;25.834;2023-05-19T04:30:03;100184.50;;;16.75;89.78
9059;BME280;4564;42.034;25.834;2023-05-19T04:32:29;100184.19;;;16.83;89.00
9059;BME280;4564;42.034;25.834;2023-05-19T04:34:56;100183.59;;;16.81;88.75
9059;BME280;4564;42.034;25.834;2023-05-19T04:37:24;100189.34;;;16.91;89.72
9059;BME280;4564;42.034;25.834;2023-05-19T04:39:51;100197.00;;;16.89;89.24
9059;BME280;4564;42.034;25.834;2023-05-19T04:42:18;100200.47;;;16.96;88.97
9059;BME280;4564;42.034;25.834;2023-05-19T04:44:45;100193.53;;;17.24;87.96
9059;BME280;4564;42.034;25.834;2023-05-19T04:47:13;100197.47;;;17.57;87.02
9059;BME280;4564;42.034;25.834;2023-05-19T04:49:40;100205.16;;;17.67;84.22
9059;BME280;4564;42.034;25.834;2023-05-19T04:52:07;100207.44;;;17.93;82.84
9059;BME280;4564;42.034;25.834;2023-05-19T04:54:36;100214.63;;;18.18;83.20
9059;BME280;4564;42.034;25.834;2023-05-19T04:57:03;100208.03;;;18.42;82.80
9059;BME280;4564;42.034;25.834;2023-05-19T04:59:30;100217.38;;;18.64;82.35
9059;BME280;4564;42.034;25.834;2023-05-19T05:01:57;100216.41;;;18.70;80.84
9059;BME280;4564;42.034;25.834;2023-05-19T05:04:23;100217.63;;;19.31;79.19
9059;BME280;4564;42.034;25.834;2023-05-19T05:06:50;100217.56;;;19.88;78.18
9059;BME280;4564;42.034;25.834;2023-05-19T05:09:16;100216.16;;;20.35;74.49
9059;BME280;4564;42.034;25.834;2023-05-19T05:11:45;100219.84;;;20.63;74.78
9059;BME280;4564;42.034;25.834;2023-05-19T05:14:12;100220.56;;;20.75;72.88
9059;BME280;4564;42.034;25.834;2023-05-19T05:16:39;100224.63;;;20.89;72.24
9059;BME280;4564;42.034;25.834;2023-05-19T05:19:06;100225.84;;;20.98;70.45
9059;BME280;4564;42.034;25.834;2023-05-19T05:21:33;100229.56;;;21.57;70.78
9059;BME280;4564;42.034;25.834;2023-05-19T05:23:59;100239.69;;;21.73;70.78
9059;BME280;4564;42.034;25.834;2023-05-19T05:26:27;100236.44;;;22.13;67.91
9059;BME280;4564;42.034;25.834;2023-05-19T05:28:55;100237.00;;;21.84;67.67
9059;BME280;4564;42.034;25.834;2023-05-19T05:31:22;100233.78;;;21.65;69.23
9059;BME280;4564;42.034;25.834;2023-05-19T05:33:49;100235.44;;;21.66;70.15
9059;BME280;4564;42.034;25.834;2023-05-19T05:36:15;100242.72;;;21.77;70.25
9059;BME280;4564;42.034;25.834;2023-05-19T05:38:42;100249.00;;;21.94;69.65
9059;BME280;4564;42.034;25.834;2023-05-19T05:41:08;100248.41;;;22.61;64.91
9059;BME280;4564;42.034;25.834;2023-05-19T05:43:35;100252.84;;;23.09;66.29
9059;BME280;4564;42.034;25.834;2023-05-19T05:46:03;100255.94;;;23.33;64.53
9059;BME280;4564;42.034;25.834;2023-05-19T05:48:30;100259.97;;;23.88;62.55
9059;BME280;4564;42.034;25.834;2023-05-19T05:50:57;100255.84;;;23.90;63.53
9059;BME280;4564;42.034;25.834;2023-05-19T05:53:24;100268.03;;;24.09;62.62
9059;BME280;4564;42.034;25.834;2023-05-19T05:55:52;100261.13;;;24.07;63.32
9059;BME280;4564;42.034;25.834;2023-05-19T05:58:18;100273.63;;;24.24;61.03
9059;BME280;4564;42.034;25.834;2023-05-19T06:00:45;100275.81;;;24.43;62.46
9059;BME280;4564;42.034;25.834;2023-05-19T06:03:14;100268.88;;;24.55;62.23
9059;BME280;4564;42.034;25.834;2023-05-19T06:05:42;100276.13;;;24.26;60.05
9059;BME280;4564;42.034;25.834;2023-05-19T06:08:08;100276.03;;;23.65;63.84
9059;BME280;4564;42.034;25.834;2023-05-19T06:10:35;100277.03;;;23.39;64.96
9059;BME280;4564;42.034;25.834;2023-05-19T06:13:03;100283.84;;;24.14;63.75
9059;BME280;4564;42.034;25.834;2023-05-19T06:15:29;100280.50;;;24.88;59.63
9059;BME280;4564;42.034;25.834;2023-05-19T06:17:56;100275.75;;;24.78;60.14
9059;BME280;4564;42.034;25.834;2023-05-19T06:20:24;100276.50;;;25.19;61.16
9059;BME280;4564;42.034;25.834;2023-05-19T06:22:50;100279.31;;;25.09;59.16
9059;BME280;4564;42.034;25.834;2023-05-19T06:25:17;100280.53;;;24.57;62.00
9059;BME280;4564;42.034;25.834;2023-05-19T06:27:44;100283.00;;;24.64;62.27
9059;BME280;4564;42.034;25.834;2023-05-19T06:30:11;100290.94;;;25.16;60.85
9059;BME280;4564;42.034;25.834;2023-05-19T06:32:38;100283.59;;;25.45;59.77
9059;BME280;4564;42.034;25.834;2023-05-19T06:35:05;100287.34;;;25.80;58.51
9059;BME280;4564;42.034;25.834;2023-05-19T06:37:33;100285.94;;;26.16;56.40
9059;BME280;4564;42.034;25.834;2023-05-19T06:39:59;100293.91;;;26.33;56.84
9059;BME280;4564;42.034;25.834;2023-05-19T06:42:26;100290.06;;;26.58;55.30
9059;BME280;4564;42.034;25.834;2023-05-19T06:44:54;100296.31;;;27.87;55.64
9059;BME280;4564;42.034;25.834;2023-05-19T06:47:20;100290.31;;;29.10;45.56
9059;BME280;4564;42.034;25.834;2023-05-19T06:49:47;100294.06;;;29.19;48.20
9059;BME280;4564;42.034;25.834;2023-05-19T06:52:19;100293.59;;;30.16;44.76
9059;BME280;4564;42.034;25.834;2023-05-19T06:54:47;100293.69;;;30.78;41.42
9059;BME280;4564;42.034;25.834;2023-05-19T06:57:14;100290.47;;;31.24;39.97
9059;BME280;4564;42.034;25.834;2023-05-19T06:59:40;100290.53;;;31.41;39.71
9059;BME280;4564;42.034;25.834;2023-05-19T07:02:07;100283.22;;;31.32;39.98
9059;BME280;4564;42.034;25.834;2023-05-19T07:04:34;100270.38;;;31.48;37.90
9059;BME280;4564;42.034;25.834;2023-05-19T07:07:01;100277.22;;;32.41;38.46
9059;BME280;4564;42.034;25.834;2023-05-19T07:09:27;100275.09;;;33.02;37.28
9059;BME280;4564;42.034;25.834;2023-05-19T07:11:55;100276.88;;;33.74;34.35
9059;BME280;4564;42.034;25.834;2023-05-19T07:14:22;100276.53;;;33.76;35.13
9059;BME280;4564;42.034;25.834;2023-05-19T07:16:49;100275.31;;;33.26;34.46
9059;BME280;4564;42.034;25.834;2023-05-19T07:19:15;100276.41;;;33.63;34.32
9059;BME280;4564;42.034;25.834;2023-05-19T07:21:43;100272.84;;;34.25;31.91
9059;BME280;4564;42.034;25.834;2023-05-19T07:24:10;100278.34;;;33.13;35.55
9059;BME280;4564;42.034;25.834;2023-05-19T07:26:37;100278.47;;;33.54;33.53
9059;BME280;4564;42.034;25.834;2023-05-19T07:29:05;100280.13;;;33.85;33.53
9059;BME280;4564;42.034;25.834;2023-05-19T07:31:32;100283.28;;;34.04;32.32
9059;BME280;4564;42.034;25.834;2023-05-19T07:33:58;100282.00;;;34.22;34.02
9059;BME280;4564;42.034;25.834;2023-05-19T07:36:25;100277.38;;;33.76;33.34
9059;BME280;4564;42.034;25.834;2023-05-19T07:38:51;100283.22;;;34.45;33.06
9059;BME280;4564;42.034;25.834;2023-05-19T07:41:18;100283.16;;;34.21;34.78
9059;BME280;4564;42.034;25.834;2023-05-19T07:43:45;100286.81;;;34.54;32.97
9059;BME280;4564;42.034;25.834;2023-05-19T07:46:13;100278.06;;;33.73;34.45
9059;BME280;4564;42.034;25.834;2023-05-19T07:48:40;100280.72;;;33.02;34.07
9059;BME280;4564;42.034;25.834;2023-05-19T07:51:06;100272.75;;;32.49;34.71
9059;BME280;4564;42.034;25.834;2023-05-19T07:53:34;100282.53;;;32.26;35.92
9059;BME280;4564;42.034;25.834;2023-05-19T07:56:01;100278.34;;;32.58;36.19
9059;BME280;4564;42.034;25.834;2023-05-19T07:58:27;100272.59;;;31.85;38.71
9059;BME280;4564;42.034;25.834;2023-05-19T08:00:55;100284.81;;;30.84;40.30
9059;BME280;4564;42.034;25.834;2023-05-19T08:03:24;100273.91;;;30.30;40.49
9059;BME280;4564;42.034;25.834;2023-05-19T08:05:51;100273.31;;;29.61;42.60
9059;BME280;4564;42.034;25.834;2023-05-19T08:08:17;100277.88;;;29.57;41.84
9059;BME280;4564;42.034;25.834;2023-05-19T08:10:44;100282.63;;;28.74;45.31
9059;BME280;4564;42.034;25.834;2023-05-19T08:13:11;100283.25;;;28.39;47.57
9059;BME280;4564;42.034;25.834;2023-05-19T08:15:37;100285.84;;;28.49;44.43
9059;BME280;4564;42.034;25.834;2023-05-19T08:18:04;100279.66;;;28.52;45.83
9059;BME280;4564;42.034;25.834;2023-05-19T08:20:32;100282.91;;;28.27;45.99
9059;BME280;4564;42.034;25.834;2023-05-19T08:23:02;100278.28;;;27.98;41.45
9059;BME280;4564;42.034;25.834;2023-05-19T08:25:28;100285.25;;;27.40;42.17
9059;BME280;4564;42.034;25.834;2023-05-19T08:27:55;100280.91;;;26.81;44.64
9059;BME280;4564;42.034;25.834;2023-05-19T08:30:22;100278.06;;;27.15;44.77
9059;BME280;4564;42.034;25.834;2023-05-19T08:32:48;100273.50;;;27.43;46.01
9059;BME280;4564;42.034;25.834;2023-05-19T08:35:15;100279.91;;;27.43;46.89
9059;BME280;4564;42.034;25.834;2023-05-19T08:37:43;100270.41;;;27.68;43.44
9059;BME280;4564;42.034;25.834;2023-05-19T08:40:10;100277.09;;;27.67;42.90
9059;BME280;4564;42.034;25.834;2023-05-19T08:42:41;100264.69;;;27.36;43.18
9059;BME280;4564;42.034;25.834;2023-05-19T08:45:08;100264.28;;;27.24;46.22
9059;BME280;4564;42.034;25.834;2023-05-19T08:47:35;100267.34;;;27.46;46.82
9059;BME280;4564;42.034;25.834;2023-05-19T08:50:03;100280.41;;;27.50;42.70
9059;BME280;4564;42.034;25.834;2023-05-19T08:52:32;100282.53;;;27.35;45.57
9059;BME280;4564;42.034;25.834;2023-05-19T08:55:02;100283.09;;;27.32;44.44
9059;BME280;4564;42.034;25.834;2023-05-19T08:57:30;100281.06;;;27.19;43.34
9059;BME280;4564;42.034;25.834;2023-05-19T08:59:56;100275.56;;;26.61;46.15
9059;BME280;4564;42.034;25.834;2023-05-19T09:02:24;100276.34;;;26.66;43.49
9059;BME280;4564;42.034;25.834;2023-05-19T09:04:51;100271.56;;;26.72;43.69
9059;BME280;4564;42.034;25.834;2023-05-19T09:07:17;100275.56;;;26.61;43.02
9059;BME280;4564;42.034;25.834;2023-05-19T09:09:45;100274.59;;;26.99;42.54
9059;BME280;4564;42.034;25.834;2023-05-19T09:12:13;100284.97;;;26.94;45.05
9059;BME280;4564;42.034;25.834;2023-05-19T09:14:40;100282.09;;;27.04;42.04
9059;BME280;4564;42.034;25.834;2023-05-19T09:17:07;100273.34;;;26.87;45.67
9059;BME280;4564;42.034;25.834;2023-05-19T09:19:33;100271.41;;;27.11;43.51
9059;BME280;4564;42.034;25.834;2023-05-19T09:22:00;100271.66;;;27.14;43.40
9059;BME280;4564;42.034;25.834;2023-05-19T09:24:27;100264.41;;;27.13;42.83
9059;BME280;4564;42.034;25.834;2023-05-19T09:26:55;100274.31;;;27.25;42.32
9059;BME280;4564;42.034;25.834;2023-05-19T09:29:24;100274.38;;;27.20;42.43
9059;BME280;4564;42.034;25.834;2023-05-19T09:31:51;100260.44;;;26.96;44.01
9059;BME280;4564;42.034;25.834;2023-05-19T09:34:18;100264.16;;;26.86;42.75
9059;BME280;4564;42.034;25.834;2023-05-19T09:36:45;100259.63;;;26.66;43.18
9059;BME280;4564;42.034;25.834;2023-05-19T09:39:13;100251.47;;;26.75;44.46
9059;BME280;4564;42.034;25.834;2023-05-19T09:41:40;100260.31;;;26.53;44.15
9059;BME280;4564;42.034;25.834;2023-05-19T09:44:11;100251.91;;;26.58;44.32
9059;BME280;4564;42.034;25.834;2023-05-19T09:46:42;100260.16;;;26.68;46.87
9059;BME280;4564;42.034;25.834;2023-05-19T09:49:12;100264.19;;;26.81;44.68
9059;BME280;4564;42.034;25.834;2023-05-19T09:51:40;100266.81;;;26.44;45.79
9059;BME280;4564;42.034;25.834;2023-05-19T09:54:06;100267.44;;;26.36;43.25
9059;BME280;4564;42.034;25.834;2023-05-19T09:56:34;100261.41;;;26.28;44.33
9059;BME280;4564;42.034;25.834;2023-05-19T09:59:01;100210.31;;;26.09;45.16
9059;BME280;4564;42.034;25.834;2023-05-19T10:01:29;100261.72;;;26.51;43.99
9059;BME280;4564;42.034;25.834;2023-05-19T10:03:57;100249.94;;;26.30;46.90
9059;BME280;4564;42.034;25.834;2023-05-19T10:06:23;100249.56;;;26.70;46.29
9059;BME280;4564;42.034;25.834;2023-05-19T10:08:51;100243.56;;;26.87;44.23
9059;BME280;4564;42.034;25.834;2023-05-19T10:11:18;100241.00;;;26.62;44.62
9059;BME280;4564;42.034;25.834;2023-05-19T10:13:46;100249.00;;;26.97;46.43
9059;BME280;4564;42.034;25.834;2023-05-19T10:16:14;100240.59;;;27.02;44.06
9059;BME280;4564;42.034;25.834;2023-05-19T10:18:41;100251.13;;;27.05;44.53
9059;BME280;4564;42.034;25.834;2023-05-19T10:21:09;100241.56;;;27.11;43.14
9059;BME280;4564;42.034;25.834;2023-05-19T10:23:36;100241.13;;;27.47;44.45
9059;BME280;4564;42.034;25.834;2023-05-19T10:26:02;100232.09;;;27.55;44.29
9059;BME280;4564;42.034;25.834;2023-05-19T10:28:34;100235.50;;;27.28;42.40
9059;BME280;4564;42.034;25.834;2023-05-19T10:31:03;100229.16;;;27.23;43.80
9059;BME280;4564;42.034;25.834;2023-05-19T10:33:33;100237.50;;;27.04;43.25
9059;BME280;4564;42.034;25.834;2023-05-19T10:36:08;100229.41;;;26.55;44.55
9059;BME280;4564;42.034;25.834;2023-05-19T10:38:47;100173.63;;;26.07;46.40
9059;BME280;4564;42.034;25.834;2023-05-19T10:41:18;100228.50;;;26.59;46.32
9059;BME280;4564;42.034;25.834;2023-05-19T10:43:52;100233.13;;;26.69;45.12
9059;BME280;4564;42.034;25.834;2023-05-19T10:46:22;100225.97;;;26.87;44.88
9059;BME280;4564;42.034;25.834;2023-05-19T10:48:49;100232.25;;;26.73;44.49
9059;BME280;4564;42.034;25.834;2023-05-19T10:51:16;100225.59;;;26.46;44.67
9059;BME280;4564;42.034;25.834;2023-05-19T10:53:44;100219.28;;;26.35;44.95
9059;BME280;4564;42.034;25.834;2023-05-19T10:56:11;100222.97;;;26.30;44.73
9059;BME280;4564;42.034;25.834;2023-05-19T10:58:54;100230.69;;;26.05;44.17
9059;BME280;4564;42.034;25.834;2023-05-19T11:01:20;100222.94;;;25.97;44.03
9059;BME280;4564;42.034;25.834;2023-05-19T11:03:49;100221.72;;;26.08;45.36
9059;BME280;4564;42.034;25.834;2023-05-19T11:06:20;100212.09;;;26.29;45.01
9059;BME280;4564;42.034;25.834;2023-05-19T11:08:52;100210.69;;;26.31;43.25
9059;BME280;4564;42.034;25.834;2023-05-19T11:11:19;100211.44;;;26.08;43.70
9059;BME280;4564;42.034;25.834;2023-05-19T11:13:46;100200.97;;;26.00;44.53
9059;BME280;4564;42.034;25.834;2023-05-19T11:16:13;100207.16;;;25.87;43.92
9059;BME280;4564;42.034;25.834;2023-05-19T11:18:46;100212.44;;;25.44;43.38
9059;BME280;4564;42.034;25.834;2023-05-19T11:21:13;100208.13;;;25.23;43.89
9059;BME280;4564;42.034;25.834;2023-05-19T11:23:39;100206.00;;;25.05;43.70
9059;BME280;4564;42.034;25.834;2023-05-19T11:26:07;100195.16;;;25.08;42.70
9059;BME280;4564;42.034;25.834;2023-05-19T11:28:34;100189.56;;;25.19;44.17
9059;BME280;4564;42.034;25.834;2023-05-19T11:31:00;100184.97;;;25.38;43.41
9059;BME280;4564;42.034;25.834;2023-05-19T11:33:28;100178.50;;;25.53;43.61
9059;BME280;4564;42.034;25.834;2023-05-19T11:35:55;100179.03;;;25.60;41.99
9059;BME280;4564;42.034;25.834;2023-05-19T11:38:23;100178.06;;;25.79;42.14
9059;BME280;4564;42.034;25.834;2023-05-19T11:40:51;100175.97;;;25.95;42.87
9059;BME280;4564;42.034;25.834;2023-05-19T11:43:19;100171.97;;;26.06;42.36
9059;BME280;4564;42.034;25.834;2023-05-19T11:45:47;100176.31;;;26.17;42.26
9059;BME280;4564;42.034;25.834;2023-05-19T11:48:14;100164.94;;;26.14;42.89
9059;BME280;4564;42.034;25.834;2023-05-19T11:50:41;100158.47;;;26.18;43.26
9059;BME280;4564;42.034;25.834;2023-05-19T11:53:10;100168.97;;;26.31;43.81
9059;BME280;4564;42.034;25.834;2023-05-19T11:55:40;100171.50;;;26.28;42.36
9059;BME280;4564;42.034;25.834;2023-05-19T11:58:07;100168.13;;;26.31;42.34
9059;BME280;4564;42.034;25.834;2023-05-19T12:00:36;100168.69;;;26.33;40.44
9059;BME280;4564;42.034;25.834;2023-05-19T12:03:03;100173.72;;;26.55;41.89
9059;BME280;4564;42.034;25.834;2023-05-19T12:05:30;100167.84;;;26.80;41.96
9059;BME280;4564;42.034;25.834;2023-05-19T12:07:57;100174.34;;;27.18;41.68
9059;BME280;4564;42.034;25.834;2023-05-19T12:10:26;100174.03;;;27.20;41.00
9059;BME280;4564;42.034;25.834;2023-05-19T12:12:53;100171.41;;;27.28;40.06
9059;BME280;4564;42.034;25.834;2023-05-19T12:15:20;100160.84;;;27.44;41.23
9059;BME280;4564;42.034;25.834;2023-05-19T12:17:49;100169.81;;;27.78;38.95
9059;BME280;4564;42.034;25.834;2023-05-19T12:20:16;100172.25;;;27.98;40.07
9059;BME280;4564;42.034;25.834;2023-05-19T12:22:43;100178.94;;;27.65;41.66
9059;BME280;4564;42.034;25.834;2023-05-19T12:25:09;100185.25;;;27.33;41.55
9059;BME280;4564;42.034;25.834;2023-05-19T12:27:36;100190.66;;;26.82;41.60
9059;BME280;4564;42.034;25.834;2023-05-19T12:30:04;100212.72;;;25.87;43.95
9059;BME280;4564;42.034;25.834;2023-05-19T12:32:32;100244.19;;;24.44;48.69
9059;BME280;4564;42.034;25.834;2023-05-19T12:35:00;100261.78;;;23.31;50.66
9059;BME280;4564;42.034;25.834;2023-05-19T12:37:27;100277.16;;;22.18;58.11
9059;BME280;4564;42.034;25.834;2023-05-19T12:39:54;100288.28;;;21.04;63.33
9059;BME280;4564;42.034;25.834;2023-05-19T12:42:21;100308.09;;;20.29;78.61
9059;BME280;4564;42.034;25.834;2023-05-19T12:44:49;100303.19;;;19.29;94.30
9059;BME280;4564;42.034;25.834;2023-05-19T12:47:16;100316.16;;;18.13;100.00
9059;BME280;4564;42.034;25.834;2023-05-19T12:49:53;100318.28;;;17.51;100.00
9059;BME280;4564;42.034;25.834;2023-05-19T12:52:22;100311.03;;;17.08;100.00
9059;BME280;4564;42.034;25.834;2023-05-19T12:54:48;100299.00;;;16.91;100.00
9059;BME280;4564;42.034;25.834;2023-05-19T12:57:16;100302.44;;;16.87;100.00
9059;BME280;4564;42.034;25.834;2023-05-19T12:59:42;100304.13;;;16.88;100.00